Time;durP1;ratioP1;P1;durP2;ratioP2;P2;SDS_P1;SDS_P2;PMS_P1;PMS_P2;Temp;Humidity;BMP_temperature;BMP_pressure;BME280_temperature;BME280_humidity;BME280_pressure;Samples;Min_cycle;Max_cycle;Signal;HPM_P1;HPM_P2
2023/12/18 00:00:58;;;;;;;5.80;5.30;;;22.80;60.60;;;;;;5073385;28;20440;-89
2023/12/18 00:03:25;;;;;;;5.30;4.80;;;22.80;60.50;;;;;;5073639;28;20444;-94
2023/12/18 00:05:52;;;;;;;5.73;5.33;;;22.80;60.60;;;;;;5073662;28;20432;-93
2023/12/18 00:08:18;;;;;;;5.83;5.30;;;22.80;60.50;;;;;;5073341;28;20468;-93
2023/12/18 00:10:45;;;;;;;5.40;5.00;;;22.80;60.50;;;;;;5073510;28;20490;-85
2023/12/18 00:13:12;;;;;;;4.50;4.13;;;22.70;60.40;;;;;;5073595;28;20437;-93
2023/12/18 00:15:39;;;;;;;6.93;5.83;;;22.70;60.40;;;;;;5073495;28;20428;-85
2023/12/18 00:18:07;;;;;;;5.07;4.67;;;22.70;60.50;;;;;;5073246;28;20436;-88
2023/12/18 00:20:34;;;;;;;5.03;4.63;;;22.70;60.50;;;;;;5073631;28;20472;-85
2023/12/18 00:23:02;;;;;;;5.50;4.93;;;22.70;60.50;;;;;;5073424;28;20451;-85
2023/12/18 00:25:29;;;;;;;5.10;4.70;;;22.70;60.60;;;;;;5073339;28;20436;-85
2023/12/18 00:27:56;;;;;;;5.27;4.83;;;22.70;60.50;;;;;;5073319;28;20950;-85
2023/12/18 00:30:22;;;;;;;5.13;4.63;;;22.70;60.50;;;;;;5073001;28;20487;-90
2023/12/18 00:32:49;;;;;;;4.60;4.20;;;22.60;60.40;;;;;;5073476;28;20927;-85
2023/12/18 00:35:17;;;;;;;5.50;5.00;;;22.60;60.40;;;;;;5073462;28;20444;-85
2023/12/18 00:37:44;;;;;;;5.67;4.53;;;22.60;60.50;;;;;;5073428;28;20440;-89
2023/12/18 00:40:12;;;;;;;4.30;3.90;;;22.70;60.60;;;;;;5073456;28;20432;-90
2023/12/18 00:42:38;;;;;;;6.83;4.50;;;22.60;60.50;;;;;;5073114;28;20440;-93
2023/12/18 00:45:06;;;;;;;4.80;4.40;;;22.60;60.50;;;;;;5072955;28;20437;-91
2023/12/18 00:47:33;;;;;;;4.83;4.37;;;22.60;60.40;;;;;;5073067;28;20435;-93
2023/12/18 00:50:00;;;;;;;4.33;3.93;;;22.60;60.50;;;;;;5073131;28;20488;-88
2023/12/18 00:52:28;;;;;;;4.63;4.23;;;22.60;60.50;;;;;;5073167;28;20464;-85
2023/12/18 00:54:55;;;;;;;4.40;4.00;;;22.60;60.50;;;;;;5073425;28;20443;-88
2023/12/18 00:57:21;;;;;;;4.20;3.80;;;22.60;60.60;;;;;;5073395;28;20446;-89
2023/12/18 00:59:48;;;;;;;4.70;4.33;;;22.60;60.60;;;;;;5073164;28;20455;-85
2023/12/18 01:02:15;;;;;;;4.07;3.77;;;22.50;60.50;;;;;;5073090;28;20440;-93
2023/12/18 01:04:42;;;;;;;4.63;4.27;;;22.50;60.50;;;;;;5073239;28;20443;-91
2023/12/18 01:07:08;;;;;;;4.07;3.77;;;22.50;60.50;;;;;;5072810;28;20476;-86
2023/12/18 01:09:37;;;;;;;4.17;3.87;;;22.50;60.50;;;;;;5072910;28;20492;-93
2023/12/18 01:12:04;;;;;;;4.70;4.40;;;22.50;60.40;;;;;;5072775;28;20428;-85
2023/12/18 01:14:30;;;;;;;4.33;4.03;;;22.50;60.50;;;;;;5076557;28;20519;-92
2023/12/18 01:16:57;;;;;;;3.43;3.23;;;22.50;60.40;;;;;;5076997;28;20443;-86
2023/12/18 01:19:24;;;;;;;3.70;3.47;;;22.50;60.50;;;;;;5076639;28;20801;-94
2023/12/18 01:21:51;;;;;;;4.20;3.80;;;22.50;60.40;;;;;;5076680;28;20821;-85
2023/12/18 01:24:18;;;;;;;4.53;3.80;;;22.50;60.50;;;;;;5076383;28;20435;-86
2023/12/18 01:26:46;;;;;;;4.13;3.83;;;22.50;60.50;;;;;;5076463;28;20447;-85
2023/12/18 01:29:13;;;;;;;4.63;4.13;;;22.50;60.50;;;;;;5076657;28;20789;-84
2023/12/18 01:31:40;;;;;;;4.30;3.33;;;22.50;60.50;;;;;;5076490;28;20480;-85
2023/12/18 01:34:06;;;;;;;3.97;3.67;;;22.50;60.60;;;;;;5076195;28;20627;-85
2023/12/18 01:36:33;;;;;;;4.07;3.77;;;22.50;60.60;;;;;;5076274;28;20443;-85
2023/12/18 01:39:00;;;;;;;3.80;3.50;;;22.50;60.70;;;;;;5076376;28;20436;-90
2023/12/18 01:41:26;;;;;;;3.60;3.30;;;22.50;60.70;;;;;;5076414;28;20447;-91
2023/12/18 01:43:55;;;;;;;6.87;4.03;;;22.50;60.70;;;;;;5076060;28;20433;-93
2023/12/18 01:46:23;;;;;;;3.77;3.43;;;22.50;60.60;;;;;;5075996;28;20443;-85
2023/12/18 01:48:51;;;;;;;4.13;3.83;;;22.50;60.60;;;;;;5076043;28;20424;-85
2023/12/18 01:51:18;;;;;;;3.80;3.50;;;22.50;60.50;;;;;;5076234;28;20488;-85
2023/12/18 01:53:48;;;;;;;3.80;3.50;;;22.50;60.50;;;;;;5075912;28;20527;-86
2023/12/18 01:56:18;;;;;;;4.63;3.80;;;22.50;60.50;;;;;;5076011;28;20460;-85
2023/12/18 01:58:45;;;;;;;4.90;3.53;;;22.50;60.50;;;;;;5076288;28;20785;-85
2023/12/18 02:01:14;;;;;;;3.73;3.53;;;22.50;60.50;;;;;;5076847;28;20796;-88
2023/12/18 02:03:42;;;;;;;3.27;3.07;;;22.50;60.40;;;;;;5075648;28;20535;-93
2023/12/18 02:06:09;;;;;;;3.40;3.10;;;22.50;60.30;;;;;;5075822;28;20432;-84
2023/12/18 02:08:36;;;;;;;4.07;3.63;;;22.50;60.30;;;;;;5075364;28;20468;-87
2023/12/18 02:11:03;;;;;;;3.73;3.43;;;22.50;60.30;;;;;;5075788;28;20490;-85
2023/12/18 02:13:30;;;;;;;3.00;2.80;;;22.50;60.30;;;;;;5074951;28;20428;-85
2023/12/18 02:15:58;;;;;;;3.33;3.03;;;22.50;60.20;;;;;;5070987;28;20448;-84
2023/12/18 02:18:26;;;;;;;3.90;3.53;;;22.50;60.20;;;;;;5073899;28;20447;-89
2023/12/18 02:20:54;;;;;;;3.00;2.80;;;22.50;60.20;;;;;;5074725;28;20445;-91
2023/12/18 02:23:22;;;;;;;3.33;3.13;;;22.50;60.20;;;;;;5075207;28;20959;-84
2023/12/18 02:25:49;;;;;;;3.53;3.23;;;22.50;60.10;;;;;;5074184;28;20453;-85
2023/12/18 02:28:18;;;;;;;3.07;2.87;;;22.50;60.10;;;;;;5074551;28;20468;-84
2023/12/18 02:30:45;;;;;;;3.00;2.80;;;22.50;60.10;;;;;;5074732;28;20488;-84
2023/12/18 02:33:12;;;;;;;3.00;2.80;;;22.50;60.00;;;;;;5074844;28;20470;-85
2023/12/18 02:35:39;;;;;;;3.77;3.47;;;22.50;60.10;;;;;;5074939;28;20445;-85
2023/12/18 02:38:05;;;;;;;3.03;2.83;;;22.50;60.00;;;;;;5073796;28;20447;-91
2023/12/18 02:40:34;;;;;;;3.47;3.17;;;22.50;60.00;;;;;;5064228;28;20441;-85
2023/12/18 02:43:01;;;;;;;2.70;2.50;;;22.50;60.00;;;;;;5063435;28;20437;-92
2023/12/18 02:45:28;;;;;;;3.20;2.87;;;22.50;60.00;;;;;;5071252;28;20453;-85
2023/12/18 02:47:54;;;;;;;3.27;2.97;;;22.70;60.00;;;;;;5074281;28;20445;-84
2023/12/18 02:50:21;;;;;;;3.37;3.07;;;22.50;59.90;;;;;;5070312;28;20482;-92
2023/12/18 02:52:48;;;;;;;2.90;2.60;;;22.50;59.90;;;;;;5074851;28;20458;-85
2023/12/18 02:55:15;;;;;;;3.47;3.17;;;22.50;60.00;;;;;;5072429;28;20490;-92
2023/12/18 02:57:43;;;;;;;3.00;2.80;;;22.50;59.90;;;;;;5074220;28;20433;-85
2023/12/18 03:00:10;;;;;;;3.83;3.50;;;22.50;59.90;;;;;;5072826;28;20455;-85
2023/12/18 03:02:38;;;;;;;3.67;3.13;;;22.50;59.80;;;;;;5066949;28;20433;-90
2023/12/18 03:05:05;;;;;;;4.70;2.77;;;22.50;59.90;;;;;;5067856;28;20452;-85
2023/12/18 03:07:32;;;;;;;3.13;2.83;;;22.50;59.90;;;;;;5063177;28;20460;-86
2023/12/18 03:09:59;;;;;;;3.37;3.00;;;22.50;59.80;;;;;;5066421;28;20445;-85
2023/12/18 03:12:26;;;;;;;3.07;2.73;;;22.50;59.90;;;;;;5066070;28;20437;-87
2023/12/18 03:14:54;;;;;;;2.53;2.40;;;22.50;59.90;;;;;;5066593;28;20445;-85
2023/12/18 03:17:20;;;;;;;3.03;2.80;;;22.50;59.80;;;;;;5073518;28;20448;-84
2023/12/18 03:19:50;;;;;;;4.00;2.60;;;22.50;59.80;;;;;;5072687;28;20448;-93
2023/12/18 03:22:17;;;;;;;3.40;2.87;;;22.50;59.80;;;;;;5072137;28;20987;-91
2023/12/18 03:24:44;;;;;;;2.90;2.70;;;22.50;59.70;;;;;;5073299;28;20539;-85
2023/12/18 03:27:11;;;;;;;2.97;2.73;;;22.50;59.70;;;;;;5064495;28;20988;-92
2023/12/18 03:29:37;;;;;;;3.07;2.63;;;22.50;59.80;;;;;;5072576;28;20849;-84
2023/12/18 03:32:06;;;;;;;2.97;2.70;;;22.50;59.80;;;;;;5072810;28;20480;-85
2023/12/18 03:34:33;;;;;;;4.17;3.00;;;22.50;59.80;;;;;;5071887;28;20935;-85
2023/12/18 03:37:00;;;;;;;3.17;2.77;;;22.50;59.80;;;;;;5071722;28;20429;-93
2023/12/18 03:39:26;;;;;;;2.67;2.40;;;22.50;59.70;;;;;;5072909;28;20443;-85
2023/12/18 03:41:53;;;;;;;3.73;2.43;;;22.50;59.80;;;;;;5072066;28;20444;-85
2023/12/18 03:44:20;;;;;;;2.40;2.20;;;22.50;59.70;;;;;;5071618;28;20450;-85
2023/12/18 03:46:47;;;;;;;2.80;2.60;;;22.50;59.70;;;;;;5071718;28;20935;-85
2023/12/18 03:49:15;;;;;;;2.10;2.00;;;22.50;59.70;;;;;;5071561;28;20467;-84
2023/12/18 03:51:42;;;;;;;2.80;2.60;;;22.50;59.70;;;;;;5071305;28;20594;-89
2023/12/18 03:54:09;;;;;;;2.50;2.30;;;22.50;59.60;;;;;;5073328;28;20432;-91
2023/12/18 03:56:35;;;;;;;2.37;2.17;;;22.50;59.60;;;;;;5073784;28;20524;-90
2023/12/18 03:59:02;;;;;;;2.80;2.60;;;22.50;59.60;;;;;;5072107;28;20448;-87
2023/12/18 04:01:33;;;;;;;2.27;2.07;;;22.50;59.60;;;;;;5073684;28;20437;-87
2023/12/18 04:04:00;;;;;;;2.67;2.47;;;22.50;59.50;;;;;;5073795;28;20429;-84
2023/12/18 04:06:28;;;;;;;2.50;2.30;;;22.50;59.50;;;;;;5073567;28;20802;-84
2023/12/18 04:08:55;;;;;;;2.70;2.50;;;22.50;59.60;;;;;;5073220;28;20543;-86
2023/12/18 04:11:22;;;;;;;2.23;2.03;;;22.50;59.50;;;;;;5073612;28;20494;-87
2023/12/18 04:13:49;;;;;;;2.20;2.10;;;22.50;59.50;;;;;;5073474;28;20444;-90
2023/12/18 04:16:15;;;;;;;2.80;2.53;;;22.50;59.50;;;;;;5073417;28;20442;-84
2023/12/18 04:18:42;;;;;;;2.10;1.90;;;22.50;59.90;;;;;;5073888;28;20790;-84
2023/12/18 04:21:15;;;;;;;2.33;2.13;;;22.50;59.50;;;;;;5073296;28;20456;-85
2023/12/18 04:23:43;;;;;;;2.10;2.00;;;22.50;59.60;;;;;;5073181;28;20444;-85
2023/12/18 04:26:10;;;;;;;2.30;2.10;;;22.50;59.60;;;;;;5073399;28;20439;-84
2023/12/18 04:28:37;;;;;;;2.83;2.50;;;22.50;59.60;;;;;;5073197;28;20451;-93
2023/12/18 04:31:04;;;;;;;1.93;1.73;;;22.50;59.50;;;;;;5073258;28;20476;-83
2023/12/18 04:33:30;;;;;;;2.53;2.33;;;22.50;59.50;;;;;;5073353;28;20793;-84
2023/12/18 04:35:58;;;;;;;2.80;2.60;;;22.50;59.50;;;;;;5073301;28;20805;-85
2023/12/18 04:38:25;;;;;;;2.70;2.50;;;22.50;59.40;;;;;;5073236;28;20443;-85
2023/12/18 04:40:53;;;;;;;2.03;1.83;;;22.50;59.40;;;;;;5073224;28;20527;-90
2023/12/18 04:43:20;;;;;;;2.70;2.50;;;22.50;59.50;;;;;;5073460;28;20450;-84
2023/12/18 04:45:47;;;;;;;2.40;2.20;;;22.50;59.50;;;;;;5073325;28;20443;-84
2023/12/18 04:48:13;;;;;;;2.13;2.03;;;22.50;59.50;;;;;;5074867;28;20458;-91
2023/12/18 04:50:40;;;;;;;2.20;2.10;;;22.50;59.40;;;;;;5076905;28;20484;-84
2023/12/18 04:53:07;;;;;;;2.67;2.47;;;22.50;59.40;;;;;;5077298;28;20456;-84
2023/12/18 04:55:34;;;;;;;2.27;2.10;;;22.50;59.40;;;;;;5068998;28;20824;-83
2023/12/18 04:58:02;;;;;;;2.33;2.13;;;22.50;59.50;;;;;;5057037;28;20940;-88
2023/12/18 05:00:29;;;;;;;2.47;2.30;;;22.50;59.40;;;;;;5062323;28;20428;-84
2023/12/18 05:02:54;;;;;;;2.47;2.10;;;22.50;59.40;;;;;;5076548;28;20446;-85
2023/12/18 05:05:21;;;;;;;2.17;2.00;;;22.50;59.40;;;;;;5076662;28;20936;-84
2023/12/18 05:07:48;;;;;;;3.77;2.10;;;22.50;59.30;;;;;;5075912;28;20226;-85
2023/12/18 05:10:15;;;;;;;2.50;2.30;;;22.60;59.40;;;;;;5076734;28;20432;-90
2023/12/18 05:12:41;;;;;;;2.77;2.47;;;22.60;59.40;;;;;;5076577;28;20484;-85
2023/12/18 05:15:10;;;;;;;1.80;1.70;;;22.60;59.30;;;;;;5076281;28;20441;-85
2023/12/18 05:17:37;;;;;;;2.93;2.47;;;22.60;59.20;;;;;;5076599;28;20442;-84
2023/12/18 05:20:06;;;;;;;2.53;2.33;;;22.60;59.30;;;;;;5076470;28;20539;-85
2023/12/18 05:22:34;;;;;;;2.20;2.03;;;22.60;59.30;;;;;;5076488;28;20527;-85
2023/12/18 05:25:00;;;;;;;2.63;2.43;;;22.60;59.20;;;;;;5075969;28;20432;-85
2023/12/18 05:27:27;;;;;;;2.10;2.00;;;22.60;59.20;;;;;;5076384;28;20439;-86
2023/12/18 05:29:54;;;;;;;1.90;1.80;;;22.60;59.20;;;;;;5076573;28;20789;-86
2023/12/18 05:32:22;;;;;;;1.90;1.80;;;22.60;59.20;;;;;;5076303;28;20515;-86
2023/12/18 05:34:49;;;;;;;2.37;2.03;;;22.60;59.10;;;;;;5076536;28;20523;-88
2023/12/18 05:37:16;;;;;;;2.10;2.00;;;22.60;59.10;;;;;;5076267;28;20443;-86
2023/12/18 05:39:42;;;;;;;2.30;2.10;;;22.60;59.10;;;;;;5076128;28;20539;-86
2023/12/18 05:42:09;;;;;;;2.13;2.00;;;22.60;59.10;;;;;;5076008;28;20436;-86
2023/12/18 05:44:36;;;;;;;2.37;2.17;;;22.60;59.10;;;;;;5076003;28;20433;-86
2023/12/18 05:47:03;;;;;;;2.60;2.40;;;22.60;59.00;;;;;;5076028;28;20939;-86
2023/12/18 05:49:31;;;;;;;2.33;1.90;;;22.60;59.00;;;;;;5076044;28;20424;-91
2023/12/18 05:51:58;;;;;;;2.03;1.93;;;22.60;59.00;;;;;;5075797;28;20484;-93
2023/12/18 05:54:25;;;;;;;2.33;2.13;;;22.60;59.00;;;;;;5076071;28;20523;-91
2023/12/18 05:56:53;;;;;;;2.30;2.20;;;22.60;58.80;;;;;;5075899;28;20501;-91
2023/12/18 05:59:20;;;;;;;1.90;1.80;;;22.60;59.00;;;;;;5074860;28;20802;-91
2023/12/18 06:01:47;;;;;;;2.50;2.30;;;22.70;59.30;;;;;;5075889;28;20855;-86
2023/12/18 06:04:14;;;;;;;2.70;2.50;;;22.70;59.10;;;;;;5076112;28;20433;-87
2023/12/18 06:06:42;;;;;;;2.47;2.27;;;22.70;59.10;;;;;;5075605;28;20440;-88
2023/12/18 06:09:09;;;;;;;3.23;3.03;;;22.70;59.00;;;;;;5075727;28;20519;-88
2023/12/18 06:11:36;;;;;;;4.23;3.00;;;22.70;59.20;;;;;;5075385;28;20571;-87
2023/12/18 06:14:02;;;;;;;3.27;3.00;;;22.70;59.20;;;;;;5075669;28;20519;-89
2023/12/18 06:16:29;;;;;;;3.20;3.00;;;22.70;59.20;;;;;;5075422;28;20444;-90
2023/12/18 06:18:59;;;;;;;4.07;2.90;;;22.70;59.10;;;;;;5075493;28;20433;-89
2023/12/18 06:21:26;;;;;;;3.90;3.37;;;22.70;59.10;;;;;;5075429;28;20482;-87
2023/12/18 06:23:54;;;;;;;3.70;3.13;;;22.70;59.20;;;;;;5075507;28;20842;-94
2023/12/18 06:26:21;;;;;;;3.30;3.10;;;22.70;59.20;;;;;;5075958;28;20444;-93
2023/12/18 06:28:47;;;;;;;3.67;3.37;;;22.70;59.10;;;;;;5075210;28;20527;-87
2023/12/18 06:31:14;;;;;;;3.80;3.53;;;22.80;59.20;;;;;;5075582;28;20479;-88
2023/12/18 06:33:41;;;;;;;3.93;3.63;;;22.80;59.20;;;;;;5075405;28;20524;-88
2023/12/18 06:36:07;;;;;;;3.20;3.00;;;22.70;59.10;;;;;;5075478;28;20444;-92
2023/12/18 06:38:34;;;;;;;3.17;2.97;;;22.70;58.90;;;;;;5075333;28;20535;-87
2023/12/18 06:41:02;;;;;;;3.60;3.30;;;22.70;59.00;;;;;;5075145;28;20428;-87
2023/12/18 06:43:30;;;;;;;3.73;3.40;;;22.70;59.10;;;;;;5075221;28;20951;-87
2023/12/18 06:45:59;;;;;;;4.00;3.70;;;22.70;59.50;;;;;;5075012;28;20439;-87
2023/12/18 06:48:26;;;;;;;3.50;3.30;;;22.80;59.10;;;;;;5074831;28;20962;-87
2023/12/18 06:50:53;;;;;;;3.97;3.60;;;22.70;59.00;;;;;;5074923;28;20462;-90
2023/12/18 06:53:20;;;;;;;3.90;3.60;;;22.70;59.10;;;;;;5074954;28;20583;-93
2023/12/18 06:55:47;;;;;;;3.50;3.30;;;22.80;59.20;;;;;;5076653;28;20432;-94
2023/12/18 06:58:16;;;;;;;3.40;3.20;;;22.70;58.90;;;;;;5076395;28;20466;-93
2023/12/18 07:00:43;;;;;;;3.50;3.30;;;22.70;59.00;;;;;;5076134;28;20567;-94
2023/12/18 07:03:11;;;;;;;8.70;3.50;;;22.80;59.10;;;;;;5076622;28;20450;-92
2023/12/18 07:05:38;;;;;;;3.30;3.10;;;22.70;59.20;;;;;;5077158;28;20931;-94
2023/12/18 07:08:06;;;;;;;3.70;2.97;;;22.80;59.20;;;;;;5079307;28;20472;-94
2023/12/18 07:10:33;;;;;;;3.70;3.40;;;22.80;59.00;;;;;;5080433;28;20558;-94
2023/12/18 07:13:00;;;;;;;3.67;3.33;;;22.80;59.00;;;;;;5075810;28;20886;-86
2023/12/18 07:15:28;;;;;;;3.57;3.27;;;22.80;59.00;;;;;;5075388;28;20455;-95
2023/12/18 07:17:58;;;;;;;3.77;3.47;;;22.80;58.90;;;;;;5074329;28;20444;-87
2023/12/18 07:20:25;;;;;;;3.13;2.87;;;22.80;59.10;;;;;;5074547;28;20841;-87
2023/12/18 07:22:51;;;;;;;3.50;3.00;;;22.80;59.20;;;;;;5074360;28;20460;-93
2023/12/18 07:25:19;;;;;;;4.60;3.23;;;22.70;59.10;;;;;;5074209;28;20436;-93
2023/12/18 07:27:47;;;;;;;3.80;3.37;;;22.80;59.40;;;;;;5073926;28;20437;-87
2023/12/18 07:30:15;;;;;;;3.77;3.47;;;22.80;59.10;;;;;;5074123;28;20437;-87
2023/12/18 07:32:43;;;;;;;3.40;3.10;;;22.80;59.00;;;;;;5074070;28;20490;-87
2023/12/18 07:35:10;;;;;;;3.27;2.97;;;22.80;58.80;;;;;;5073845;28;20443;-85
2023/12/18 07:37:37;;;;;;;3.40;3.10;;;22.90;59.10;;;;;;5073849;28;20440;-90
2023/12/18 07:40:04;;;;;;;4.10;3.70;;;22.80;59.10;;;;;;5073995;28;20532;-87
2023/12/18 07:42:31;;;;;;;3.40;2.90;;;22.80;59.00;;;;;;5073782;28;20447;-88
2023/12/18 07:44:57;;;;;;;3.40;3.10;;;22.80;59.10;;;;;;5073803;28;20942;-91
2023/12/18 07:47:24;;;;;;;4.77;3.60;;;22.80;58.40;;;;;;5074169;28;20675;-94
2023/12/18 07:49:51;;;;;;;4.20;3.80;;;22.80;59.00;;;;;;5074054;28;20444;-94
2023/12/18 07:52:18;;;;;;;3.50;3.23;;;22.80;59.70;;;;;;5073889;28;20512;-88
2023/12/18 07:54:45;;;;;;;4.13;3.70;;;22.80;58.60;;;;;;5073456;28;20444;-88
2023/12/18 07:57:12;;;;;;;4.30;3.83;;;22.80;59.00;;;;;;5073528;28;20815;-85
2023/12/18 07:59:39;;;;;;;5.60;3.27;;;22.80;59.10;;;;;;5073276;28;20901;-88
2023/12/18 08:02:06;;;;;;;3.80;3.50;;;22.80;59.00;;;;;;5073276;28;20458;-85
2023/12/18 08:04:34;;;;;;;3.60;3.13;;;22.80;59.00;;;;;;5073603;28;20439;-87
2023/12/18 08:07:02;;;;;;;4.53;4.13;;;22.80;59.10;;;;;;5073404;28;20472;-87
2023/12/18 08:09:29;;;;;;;3.67;3.30;;;22.70;59.00;;;;;;5073158;28;20437;-88
2023/12/18 08:11:56;;;;;;;3.50;3.13;;;22.80;59.10;;;;;;5073462;28;20476;-88
2023/12/18 08:14:23;;;;;;;4.43;3.60;;;22.80;59.10;;;;;;5073356;28;20443;-88
2023/12/18 08:16:50;;;;;;;3.57;3.27;;;22.70;59.00;;;;;;5073545;28;20444;-85
2023/12/18 08:19:17;;;;;;;4.43;3.43;;;22.80;59.10;;;;;;5073175;28;20440;-88
2023/12/18 08:21:44;;;;;;;6.30;2.73;;;22.80;59.10;;;;;;5072949;28;20823;-88
2023/12/18 08:24:12;;;;;;;3.10;2.80;;;22.80;59.10;;;;;;5072861;28;20440;-88
2023/12/18 08:26:39;;;;;;;4.93;3.10;;;22.80;59.00;;;;;;5073272;28;20531;-85
2023/12/18 08:29:07;;;;;;;3.33;2.80;;;22.90;59.60;;;;;;5073149;28;20787;-85
2023/12/18 08:31:34;;;;;;;5.20;3.30;;;22.80;59.00;;;;;;5073257;28;20801;-87
2023/12/18 08:34:01;;;;;;;3.00;2.80;;;22.80;59.10;;;;;;5073154;28;20442;-87
2023/12/18 08:36:29;;;;;;;2.73;2.53;;;22.80;59.00;;;;;;5073120;28;20441;-87
2023/12/18 08:38:56;;;;;;;6.90;3.47;;;22.80;59.10;;;;;;5073037;28;20448;-88
2023/12/18 08:41:24;;;;;;;3.47;3.17;;;22.80;59.00;;;;;;5073181;28;20433;-86
2023/12/18 08:43:51;;;;;;;3.27;3.07;;;22.80;59.10;;;;;;5072893;28;20437;-85
2023/12/18 08:46:17;;;;;;;3.27;2.97;;;22.80;59.10;;;;;;5073125;28;20446;-88
2023/12/18 08:48:44;;;;;;;3.90;3.10;;;22.80;59.50;;;;;;5072875;28;20436;-88
2023/12/18 08:51:11;;;;;;;3.60;3.10;;;22.80;59.10;;;;;;5072808;28;20460;-88
2023/12/18 08:53:38;;;;;;;3.17;2.97;;;22.80;59.10;;;;;;5072913;28;20482;-87
2023/12/18 08:56:05;;;;;;;5.20;3.30;;;22.80;58.50;;;;;;5071821;28;20441;-88
2023/12/18 08:58:34;;;;;;;3.73;3.20;;;22.90;59.00;;;;;;5071421;28;20437;-88
2023/12/18 09:01:01;;;;;;;3.37;3.07;;;22.80;59.10;;;;;;5072779;28;20803;-85
2023/12/18 09:03:34;;;;;;;2.93;2.73;;;22.80;59.10;;;;;;5072411;28;20435;-85
2023/12/18 09:06:02;;;;;;;4.10;2.87;;;22.80;59.10;;;;;;5072620;28;20429;-89
2023/12/18 09:08:29;;;;;;;4.03;2.70;;;22.90;59.70;;;;;;5072357;28;20525;-88
2023/12/18 09:10:55;;;;;;;3.20;2.90;;;22.80;59.10;;;;;;5070793;28;20458;-87
2023/12/18 09:13:22;;;;;;;4.17;2.93;;;22.80;58.90;;;;;;5070311;28;20488;-85
2023/12/18 09:15:50;;;;;;;10.97;3.90;;;22.90;59.00;;;;;;5070996;28;20477;-85
2023/12/18 09:18:17;;;;;;;4.70;3.27;;;22.90;58.70;;;;;;5072408;28;20439;-87
2023/12/18 09:20:44;;;;;;;2.70;2.50;;;22.80;58.50;;;;;;5072059;28;20463;-87
2023/12/18 09:23:10;;;;;;;3.80;2.20;;;22.80;58.70;;;;;;5072154;28;20434;-85
2023/12/18 09:25:37;;;;;;;3.67;3.37;;;22.80;58.60;;;;;;5072264;28;20995;-85
2023/12/18 09:28:05;;;;;;;2.93;2.50;;;22.80;58.60;;;;;;5072236;28;20950;-87
2023/12/18 09:30:32;;;;;;;3.00;2.80;;;22.80;58.50;;;;;;5072276;28;20432;-85
2023/12/18 09:33:00;;;;;;;4.67;2.70;;;22.80;58.50;;;;;;5072152;28;20895;-85
2023/12/18 09:35:26;;;;;;;3.33;2.50;;;22.80;58.40;;;;;;5074316;28;20440;-85
2023/12/18 09:37:53;;;;;;;5.23;3.20;;;22.80;58.40;;;;;;5075221;28;20788;-84
2023/12/18 09:40:20;;;;;;;2.77;2.57;;;22.80;58.50;;;;;;5075579;28;20462;-85
2023/12/18 09:42:52;;;;;;;3.83;2.60;;;22.80;58.40;;;;;;5075756;28;20447;-85
2023/12/18 09:45:23;;;;;;;4.03;2.57;;;22.80;58.30;;;;;;5075798;28;20807;-84
2023/12/18 09:47:50;;;;;;;8.30;3.40;;;22.80;58.30;;;;;;5075781;28;20497;-85
2023/12/18 09:50:18;;;;;;;2.80;2.47;;;22.80;58.30;;;;;;5075635;28;20439;-84
2023/12/18 09:52:53;;;;;;;4.77;3.13;;;22.80;58.40;;;;;;5075562;28;20487;-85
2023/12/18 09:55:21;;;;;;;4.70;2.97;;;22.80;58.40;;;;;;5075580;28;20440;-85
2023/12/18 09:57:49;;;;;;;5.20;2.77;;;22.80;58.30;;;;;;5075516;28;20843;-85
2023/12/18 10:00:17;;;;;;;6.10;2.33;;;22.80;58.30;;;;;;5075439;28;20448;-85
2023/12/18 10:02:44;;;;;;;3.03;2.73;;;22.80;58.30;;;;;;5075286;28;20443;-85
2023/12/18 10:05:11;;;;;;;3.13;2.57;;;22.80;58.30;;;;;;5075382;28;20433;-84
2023/12/18 10:07:40;;;;;;;3.10;2.80;;;22.80;58.30;;;;;;5075023;28;20476;-85
2023/12/18 10:10:07;;;;;;;3.40;2.70;;;22.80;58.30;;;;;;5075420;28;20457;-85
2023/12/18 10:12:35;;;;;;;3.67;2.57;;;22.80;58.30;;;;;;5075145;28;20476;-84
2023/12/18 10:15:03;;;;;;;2.53;2.30;;;22.80;58.30;;;;;;5075171;28;20437;-84
2023/12/18 10:17:30;;;;;;;3.50;2.53;;;22.80;58.90;;;;;;5075183;28;20450;-85
2023/12/18 10:19:58;;;;;;;2.57;2.37;;;22.80;58.30;;;;;;5075031;28;20441;-87
2023/12/18 10:22:24;;;;;;;2.60;2.40;;;23.00;58.40;;;;;;5074865;28;20576;-84
2023/12/18 10:24:52;;;;;;;4.07;2.20;;;22.80;58.30;;;;;;5074920;28;20436;-85
2023/12/18 10:27:19;;;;;;;2.20;2.00;;;22.90;58.40;;;;;;5074981;28;20439;-84
2023/12/18 10:29:46;;;;;;;2.20;2.00;;;22.90;58.20;;;;;;5074853;28;20428;-86
2023/12/18 10:32:13;;;;;;;3.83;2.60;;;22.90;58.20;;;;;;5074826;28;20436;-84
2023/12/18 10:34:40;;;;;;;5.00;2.20;;;22.80;58.20;;;;;;5074798;28;20445;-84
2023/12/18 10:37:07;;;;;;;2.73;2.20;;;22.90;58.30;;;;;;5074750;28;20437;-85
2023/12/18 10:39:38;;;;;;;3.20;2.70;;;22.90;58.20;;;;;;5074683;28;20805;-84
2023/12/18 10:42:14;;;;;;;1.90;1.80;;;22.90;58.30;;;;;;5074625;28;20432;-85
2023/12/18 10:44:42;;;;;;;4.57;2.30;;;22.90;58.20;;;;;;5074579;28;20442;-85
2023/12/18 10:47:10;;;;;;;2.17;2.07;;;22.90;58.20;;;;;;5074072;28;20928;-85
2023/12/18 10:49:41;;;;;;;2.33;1.83;;;22.90;58.20;;;;;;5074447;28;20969;-85
2023/12/18 10:52:09;;;;;;;2.30;2.10;;;22.90;58.30;;;;;;5074425;28;20456;-87
2023/12/18 10:54:37;;;;;;;2.17;1.97;;;22.90;58.20;;;;;;5074389;28;20448;-85
2023/12/18 10:57:06;;;;;;;2.50;2.30;;;22.90;58.20;;;;;;5074297;28;20920;-84
2023/12/18 10:59:34;;;;;;;3.40;2.20;;;22.90;58.20;;;;;;5074289;28;20927;-85
2023/12/18 11:02:02;;;;;;;2.33;2.13;;;22.90;58.30;;;;;;5056397;28;20437;-87
2023/12/18 11:04:30;;;;;;;3.20;2.10;;;22.90;58.30;;;;;;5074029;28;20954;-85
2023/12/18 11:06:58;;;;;;;2.40;2.20;;;22.90;58.30;;;;;;5073852;28;20469;-84
2023/12/18 11:09:25;;;;;;;2.23;2.13;;;22.90;58.20;;;;;;5073983;28;20443;-84
2023/12/18 11:11:52;;;;;;;3.40;2.10;;;22.80;58.10;;;;;;5074119;28;20436;-84
2023/12/18 11:14:30;;;;;;;3.03;2.20;;;22.80;58.20;;;;;;5073947;28;20488;-85
2023/12/18 11:17:13;;;;;;;1.83;1.70;;;22.90;58.30;;;;;;5074004;28;20440;-85
2023/12/18 11:19:45;;;;;;;2.50;2.10;;;22.90;58.20;;;;;;5074041;28;20440;-85
2023/12/18 11:22:16;;;;;;;2.80;2.17;;;22.90;58.30;;;;;;5073977;28;20457;-87
2023/12/18 11:24:46;;;;;;;5.40;3.00;;;22.80;58.20;;;;;;5073800;28;20436;-87
2023/12/18 11:27:13;;;;;;;1.80;1.70;;;22.90;58.20;;;;;;5073774;28;20433;-84
2023/12/18 11:29:46;;;;;;;2.03;1.93;;;22.90;58.00;;;;;;5073754;28;20441;-85
2023/12/18 11:32:44;;;;;;;3.00;1.97;;;22.90;58.20;;;;;;5073612;28;20447;-88
2023/12/18 11:35:11;;;;;;;2.63;1.70;;;22.90;58.10;;;;;;5073533;28;20439;-85
2023/12/18 11:37:42;;;;;;;2.50;2.23;;;22.90;58.20;;;;;;5073515;28;20794;-84
2023/12/18 11:40:35;;;;;;;2.03;1.83;;;22.90;58.30;;;;;;5073517;28;20504;-84
2023/12/18 11:43:02;;;;;;;2.03;1.80;;;23.00;58.30;;;;;;5073431;28;20463;-84
2023/12/18 11:45:31;;;;;;;2.60;2.10;;;22.90;58.10;;;;;;5073320;28;20440;-85
2023/12/18 11:48:01;;;;;;;2.30;2.10;;;22.80;58.00;;;;;;5073329;28;20428;-85
2023/12/18 11:50:31;;;;;;;2.03;1.90;;;22.90;58.10;;;;;;5073413;28;20440;-84
2023/12/18 11:52:59;;;;;;;3.50;2.13;;;22.90;58.20;;;;;;5073400;28;20468;-85
2023/12/18 11:55:48;;;;;;;2.07;1.87;;;22.90;58.10;;;;;;5073278;28;20945;-85
2023/12/18 11:58:15;;;;;;;2.17;1.97;;;23.00;58.20;;;;;;5072330;28;20528;-84
2023/12/18 12:00:43;;;;;;;2.00;1.90;;;22.90;58.10;;;;;;5073259;28;20436;-85
2023/12/18 12:03:10;;;;;;;2.93;2.20;;;22.90;58.10;;;;;;5073214;28;20436;-85
2023/12/18 12:05:38;;;;;;;2.70;1.87;;;23.00;58.20;;;;;;5073121;28;20433;-85
2023/12/18 12:08:06;;;;;;;2.43;1.83;;;22.90;58.10;;;;;;5072966;28;20518;-86
2023/12/18 12:10:40;;;;;;;1.73;1.63;;;22.90;58.00;;;;;;5073044;28;20439;-84
2023/12/18 12:13:07;;;;;;;1.97;1.87;;;22.90;58.00;;;;;;5073085;28;20482;-85
2023/12/18 12:15:34;;;;;;;1.80;1.70;;;22.90;58.00;;;;;;5073053;28;20954;-84
2023/12/18 12:18:07;;;;;;;2.10;1.80;;;22.90;58.10;;;;;;5072954;28;20629;-85
2023/12/18 12:20:34;;;;;;;2.37;1.57;;;22.90;58.10;;;;;;5072991;28;20609;-85
2023/12/18 12:23:01;;;;;;;2.37;2.00;;;22.90;58.10;;;;;;5072843;28;20444;-84
2023/12/18 12:25:28;;;;;;;2.23;1.67;;;22.90;58.00;;;;;;5073010;28;20825;-85
2023/12/18 12:27:55;;;;;;;2.47;1.43;;;22.80;57.90;;;;;;5072959;28;20440;-84
2023/12/18 12:30:23;;;;;;;2.07;1.97;;;22.80;58.00;;;;;;5072823;28;20443;-84
2023/12/18 12:32:52;;;;;;;1.80;1.70;;;22.80;58.10;;;;;;5072814;28;20497;-84
2023/12/18 12:35:20;;;;;;;1.60;1.50;;;22.90;58.10;;;;;;5072739;28;20441;-85
2023/12/18 12:37:46;;;;;;;1.67;1.57;;;22.90;58.00;;;;;;5072687;28;20443;-84
2023/12/18 12:40:14;;;;;;;1.70;1.60;;;22.90;58.00;;;;;;5072789;28;20443;-84
2023/12/18 12:42:42;;;;;;;2.20;2.00;;;22.90;57.90;;;;;;5072870;28;20531;-84
2023/12/18 12:45:11;;;;;;;2.00;1.90;;;22.90;58.10;;;;;;5072748;28;20440;-85
2023/12/18 12:47:39;;;;;;;2.17;1.63;;;22.90;58.00;;;;;;5072636;28;20437;-85
2023/12/18 12:50:08;;;;;;;2.13;1.80;;;22.90;58.00;;;;;;5073240;28;20436;-85